Time;durP1;ratioP1;P1;durP2;ratioP2;P2;SDS_P1;SDS_P2;PMS_P1;PMS_P2;Temp;Humidity;BMP_temperature;BMP_pressure;BME280_temperature;BME280_humidity;BME280_pressure;Samples;Min_cycle;Max_cycle;Signal;HPM_P1;HPM_P2
2021/03/26 00:01:31;;;;;;;50.55;35.42;;;;;;;11.64;49.71;101035.97;5039287;28;20120;-68
2021/03/26 00:03:59;;;;;;;50.33;33.05;;;;;;;11.52;49.72;101038.19;5041885;28;20056;-68
2021/03/26 00:06:30;;;;;;;59.03;34.15;;;;;;;11.19;50.38;101040.41;5038483;28;20124;-68
2021/03/26 00:08:57;;;;;;;45.10;32.80;;;;;;;10.99;50.85;101045.56;5041375;28;20275;-68
2021/03/26 00:11:28;;;;;;;42.25;31.67;;;;;;;10.75;52.15;101047.34;5042090;28;20116;-68
2021/03/26 00:13:55;;;;;;;48.65;34.33;;;;;;;10.79;51.90;101043.72;5038591;28;20048;-68
2021/03/26 00:16:22;;;;;;;52.05;35.03;;;;;;;10.66;51.77;101045.09;5042108;28;20073;-68
2021/03/26 00:18:50;;;;;;;51.20;32.25;;;;;;;10.45;52.04;101050.19;5042948;28;20075;-67
2021/03/26 00:21:18;;;;;;;49.35;34.47;;;;;;;10.62;51.88;101052.19;5040930;28;20156;-67
2021/03/26 00:23:44;;;;;;;48.45;33.85;;;;;;;10.70;51.57;101046.66;5040760;28;20136;-67
2021/03/26 00:26:11;;;;;;;48.35;33.03;;;;;;;10.69;51.35;101050.19;5041153;28;20037;-67
2021/03/26 00:28:37;;;;;;;47.53;33.42;;;;;;;10.60;51.36;101053.13;5039452;28;20049;-67
2021/03/26 00:31:05;;;;;;;44.53;31.90;;;;;;;10.55;51.55;101047.25;5050606;23;20053;-67
2021/03/26 00:33:31;;;;;;;55.30;34.95;;;;;;;10.37;52.11;101054.81;5040600;28;20053;-68
2021/03/26 00:35:58;;;;;;;49.08;33.92;;;;;;;10.55;51.27;101058.53;5038889;28;20069;-67
2021/03/26 00:38:25;;;;;;;47.13;31.55;;;;;;;10.68;51.10;101058.91;5042121;28;20094;-67
2021/03/26 00:40:52;;;;;;;47.38;33.80;;;;;;;10.85;50.32;101066.94;5043070;28;20136;-68
2021/03/26 00:43:20;;;;;;;44.03;31.83;;;;;;;10.78;50.29;101065.50;5040854;28;20052;-68
2021/03/26 00:45:47;;;;;;;47.95;32.83;;;;;;;10.82;50.04;101061.88;5043838;28;20127;-67
2021/03/26 00:48:14;;;;;;;48.28;32.90;;;;;;;10.91;49.94;101061.50;5038346;28;20885;-67
2021/03/26 00:50:45;;;;;;;54.65;36.05;;;;;;;10.87;49.84;101072.97;5040106;28;20044;-68
2021/03/26 00:53:19;;;;;;;51.40;32.00;;;;;;;10.88;49.65;101068.59;5042940;28;20375;-68
2021/03/26 00:55:46;;;;;;;45.08;30.55;;;;;;;10.86;49.29;101071.25;5043314;28;20049;-68
2021/03/26 00:58:13;;;;;;;41.15;30.15;;;;;;;10.85;49.29;101069.56;5041143;28;20033;-68
2021/03/26 01:00:40;;;;;;;47.67;30.95;;;;;;;10.87;49.15;101066.91;5042643;28;20083;-68
2021/03/26 01:03:10;;;;;;;41.92;29.13;;;;;;;11.00;48.55;101065.53;5035732;28;20129;-68
2021/03/26 01:05:43;;;;;;;41.40;29.85;;;;;;;10.96;48.72;101071.75;5040764;28;20160;-68
2021/03/26 01:08:10;;;;;;;49.13;30.98;;;;;;;10.66;49.58;101065.97;5042253;28;20099;-69
2021/03/26 01:10:43;;;;;;;39.00;29.33;;;;;;;10.61;49.73;101063.53;5055557;28;20045;-68
2021/03/26 01:13:11;;;;;;;44.70;28.95;;;;;;;10.90;49.01;101072.84;5038008;28;20049;-68
2021/03/26 01:15:38;;;;;;;41.63;29.30;;;;;;;10.84;48.84;101065.25;5044358;28;20127;-69
2021/03/26 01:18:08;;;;;;;43.45;31.75;;;;;;;10.64;49.56;101066.00;5042663;28;20078;-68
2021/03/26 01:20:38;;;;;;;49.25;29.83;;;;;;;10.67;49.29;101067.66;5043192;28;20124;-68
2021/03/26 01:23:07;;;;;;;46.65;29.55;;;;;;;10.43;49.84;101067.63;5041600;28;20487;-69
2021/03/26 01:25:40;;;;;;;41.63;28.63;;;;;;;10.41;50.45;101066.84;5045012;28;20045;-69
2021/03/26 01:28:30;;;;;;;45.83;30.02;;;;;;;10.49;50.09;101064.81;5041323;28;20045;-66
2021/03/26 01:31:16;;;;;;;42.53;28.80;;;;;;;10.25;50.64;101065.69;5048203;28;20130;-69
2021/03/26 01:33:44;;;;;;;44.72;29.65;;;;;;;10.25;50.54;101076.13;5039980;28;20052;-68
2021/03/26 01:36:13;;;;;;;39.10;27.75;;;;;;;10.19;50.76;101077.16;5042306;28;20033;-68
2021/03/26 01:38:39;;;;;;;45.53;28.98;;;;;;;10.37;50.30;101065.25;5046066;28;20059;-69
2021/03/26 01:41:15;;;;;;;41.88;27.55;;;;;;;10.36;50.46;101065.31;5044916;28;20045;-66
2021/03/26 01:43:44;;;;;;;44.08;29.65;;;;;;;10.47;50.06;101068.38;5041146;28;20049;-66
2021/03/26 01:46:12;;;;;;;39.22;28.67;;;;;;;10.46;49.63;101069.28;5041238;28;20036;-68
2021/03/26 01:48:41;;;;;;;37.80;25.15;;;;;;;10.63;49.20;101066.06;5041966;28;20036;-66
2021/03/26 01:51:18;;;;;;;40.10;27.75;;;;;;;10.34;49.91;101067.97;5043996;28;20116;-68
2021/03/26 01:53:46;;;;;;;33.83;24.80;;;;;;;10.33;49.76;101068.88;5042003;28;20576;-68
2021/03/26 01:56:13;;;;;;;41.92;26.60;;;;;;;10.23;49.93;101075.31;5041600;28;20120;-67
2021/03/26 01:58:56;;;;;;;36.37;24.73;;;;;;;10.32;49.81;101072.38;5053178;28;20044;-68
2021/03/26 02:01:24;;;;;;;39.13;27.17;;;;;;;10.64;49.04;101073.81;5038530;28;20048;-66
2021/03/26 02:03:56;;;;;;;41.78;26.17;;;;;;;10.40;49.83;101067.75;5039775;28;20120;-68
2021/03/26 02:06:27;;;;;;;42.97;28.88;;;;;;;10.40;49.93;101067.75;5045495;28;20033;-66
2021/03/26 02:09:04;;;;;;;40.78;25.10;;;;;;;10.32;50.44;101074.13;5043999;28;20124;-68
2021/03/26 02:11:36;;;;;;;39.88;27.90;;;;;;;10.27;50.62;101071.69;5042104;28;20048;-68
2021/03/26 02:14:11;;;;;;;42.67;26.77;;;;;;;10.09;51.29;101067.09;5043281;28;20040;-69
2021/03/26 02:16:38;;;;;;;39.30;25.97;;;;;;;10.25;50.74;101065.69;5045513;28;20038;-68
2021/03/26 02:19:36;;;;;;;37.15;26.55;;;;;;;10.16;50.93;101071.19;5043811;28;20041;-66
2021/03/26 02:22:05;;;;;;;42.70;28.33;;;;;;;10.37;50.34;101070.47;5042940;28;20041;-68
2021/03/26 02:24:32;;;;;;;41.42;29.35;;;;;;;10.37;50.30;101073.06;5045019;28;20402;-66
2021/03/26 02:27:09;;;;;;;43.58;29.58;;;;;;;10.46;50.45;101071.91;5044225;28;20037;-68
2021/03/26 02:29:38;;;;;;;44.75;32.30;;;;;;;10.48;50.38;101068.31;5037430;28;20037;-68
2021/03/26 02:32:35;;;;;;;45.65;30.23;;;;;;;10.32;50.43;101080.19;5042007;28;20325;-68
2021/03/26 02:35:21;;;;;;;51.28;33.60;;;;;;;10.15;50.88;101074.72;5041442;28;20037;-66
2021/03/26 02:37:54;;;;;;;47.92;32.17;;;;;;;10.15;51.53;101080.75;5039706;28;20048;-66
2021/03/26 02:40:28;;;;;;;42.85;30.05;;;;;;;10.06;51.43;101080.22;5039453;28;20048;-68
2021/03/26 02:43:12;;;;;;;44.60;28.60;;;;;;;10.15;51.26;101080.75;5056200;28;20041;-68
2021/03/26 02:45:58;;;;;;;47.83;31.77;;;;;;;10.14;51.39;101081.69;5039669;28;20083;-69
2021/03/26 02:48:36;;;;;;;43.25;31.38;;;;;;;10.05;51.97;101078.53;5044659;28;20124;-68
2021/03/26 02:51:20;;;;;;;45.45;29.65;;;;;;;10.15;51.84;101079.91;5038808;28;20506;-68
2021/03/26 02:54:26;;;;;;;40.95;27.98;;;;;;;10.19;51.56;101081.53;5054105;28;20074;-67
2021/03/26 02:56:59;;;;;;;41.20;27.63;;;;;;;10.30;51.28;101086.38;5043899;28;20045;-67
2021/03/26 02:59:50;;;;;;;39.10;26.80;;;;;;;10.22;51.18;101092.66;5038849;28;20094;-67
2021/03/26 03:02:21;;;;;;;42.63;29.25;;;;;;;10.14;52.15;101086.03;5045775;28;20037;-67
2021/03/26 03:05:32;;;;;;;36.78;27.30;;;;;;;10.07;52.16;101088.00;5043921;28;20536;-67
2021/03/26 03:08:14;;;;;;;38.60;26.63;;;;;;;10.09;52.47;101091.41;5041282;28;20430;-69
2021/03/26 03:10:56;;;;;;;41.17;26.52;;;;;;;10.08;52.15;101092.31;5045758;28;20048;-69
2021/03/26 03:13:30;;;;;;;42.65;27.95;;;;;;;10.03;52.39;101095.97;5040247;28;20044;-67
2021/03/26 03:16:12;;;;;;;36.38;25.83;;;;;;;9.92;52.78;101101.56;5041072;28;20483;-68
2021/03/26 03:18:50;;;;;;;35.83;25.67;;;;;;;10.07;52.03;101105.41;5037305;28;20047;-68
2021/03/26 03:21:20;;;;;;;37.15;25.52;;;;;;;10.08;52.17;101104.50;5043681;28;20166;-68
2021/03/26 03:24:08;;;;;;;39.78;27.30;;;;;;;9.91;52.42;101111.13;5041305;28;20048;-68
2021/03/26 03:26:47;;;;;;;39.40;27.80;;;;;;;9.70;52.77;101114.44;5039974;28;20744;-67
2021/03/26 03:29:41;;;;;;;38.90;27.42;;;;;;;9.43;53.07;101122.22;5040472;28;20099;-68
2021/03/26 03:32:37;;;;;;;35.55;23.73;;;;;;;9.32;52.83;101119.09;5018778;28;750180;-68
2021/03/26 03:35:19;;;;;;;33.45;22.33;;;;;;;9.21;52.77;101120.31;5042946;28;20045;-67
2021/03/26 03:38:09;;;;;;;31.00;21.15;;;;;;;9.23;52.55;101118.53;5038834;28;20491;-68
2021/03/26 03:41:07;;;;;;;35.75;19.25;;;;;;;9.34;52.19;101127.69;5042361;28;20041;-67
2021/03/26 03:44:00;;;;;;;29.17;21.42;;;;;;;9.34;52.59;101119.91;5033856;28;20037;-68
2021/03/26 03:47:14;;;;;;;33.47;20.75;;;;;;;9.44;52.24;101123.91;5039855;28;20132;-67
2021/03/26 03:50:00;;;;;;;31.77;19.17;;;;;;;9.37;52.70;101130.19;5041554;28;20044;-67
2021/03/26 03:53:05;;;;;;;31.73;22.45;;;;;;;9.41;52.83;101134.41;5040918;28;20136;-67
2021/03/26 03:55:42;;;;;;;30.38;20.33;;;;;;;9.30;53.19;101131.28;5043742;28;20137;-68
2021/03/26 03:58:20;;;;;;;31.73;21.67;;;;;;;9.29;53.00;101132.19;5041339;28;20041;-68
2021/03/26 04:01:20;;;;;;;29.42;20.30;;;;;;;9.22;53.52;101137.66;5040927;28;20110;-68
2021/03/26 04:03:54;;;;;;;32.10;22.27;;;;;;;9.23;53.79;101139.34;5049736;28;20038;-68
2021/03/26 04:06:36;;;;;;;34.50;23.02;;;;;;;9.16;53.72;101143.84;5038762;28;20049;-68
2021/03/26 04:09:09;;;;;;;30.45;22.52;;;;;;;9.19;53.57;101148.97;5040509;28;20095;-68
2021/03/26 04:11:41;;;;;;;32.60;23.30;;;;;;;9.31;53.56;101153.81;5042589;28;20053;-68
2021/03/26 04:14:47;;;;;;;37.77;25.47;;;;;;;9.11;54.49;101153.56;5036972;28;20195;-68
2021/03/26 04:17:23;;;;;;;37.80;23.52;;;;;;;9.22;54.22;101151.50;5042785;28;20132;-67
2021/03/26 04:19:58;;;;;;;31.73;21.13;;;;;;;9.04;54.79;101160.69;5041422;28;20132;-67
2021/03/26 04:22:35;;;;;;;35.65;24.55;;;;;;;9.18;54.31;101162.88;5042535;28;20037;-67
2021/03/26 04:25:14;;;;;;;32.97;22.15;;;;;;;9.15;54.48;101168.16;5036138;28;20562;-68
2021/03/26 04:28:14;;;;;;;31.25;22.80;;;;;;;9.08;54.65;101166.66;5042160;28;20050;-68
2021/03/26 04:31:04;;;;;;;30.42;21.05;;;;;;;9.00;55.38;101158.22;5040548;28;20068;-68
2021/03/26 04:33:54;;;;;;;31.83;20.92;;;;;;;9.02;54.89;101159.03;5042645;28;20052;-67
2021/03/26 04:36:31;;;;;;;33.13;20.55;;;;;;;9.09;55.13;101163.16;5035174;28;20529;-67
2021/03/26 04:39:31;;;;;;;31.45;20.67;;;;;;;9.08;54.98;101161.47;5041546;28;20045;-68
2021/03/26 04:42:17;;;;;;;30.90;20.70;;;;;;;9.11;54.89;101169.19;5037557;28;20096;-67
2021/03/26 04:44:54;;;;;;;33.33;22.42;;;;;;;9.14;54.82;101174.28;5032141;28;20099;-68
2021/03/26 04:47:48;;;;;;;28.30;19.23;;;;;;;9.21;54.80;101183.59;5041758;28;20038;-63
2021/03/26 04:50:56;;;;;;;26.13;20.17;;;;;;;9.11;54.89;101175.22;5031593;28;20045;-75
2021/03/26 04:53:48;;;;;;;29.48;20.50;;;;;;;9.12;55.39;101179.53;5048652;28;20426;-74
2021/03/26 04:56:19;;;;;;;;;;;;;;;9.14;55.48;101180.31;5054575;28;20045;-71
2021/03/26 04:59:11;;;;;;;26.73;19.73;;;;;;;9.29;55.32;101181.63;5052122;28;19924;-74
2021/03/26 05:01:57;;;;;;;29.10;19.73;;;;;;;9.25;55.08;101189.56;5070488;28;20494;-74
2021/03/26 05:04:29;;;;;;;29.42;19.75;;;;;;;9.21;55.12;101201.81;5054307;28;20045;-74
2021/03/26 05:07:00;;;;;;;28.98;20.02;;;;;;;9.07;55.73;101194.41;5055177;28;20403;-75
2021/03/26 05:09:31;;;;;;;31.88;21.92;;;;;;;9.06;55.88;101199.69;5055367;28;20380;-73
2021/03/26 05:12:24;;;;;;;27.70;20.02;;;;;;;9.05;55.90;101198.78;5050423;28;20395;-74
2021/03/26 05:14:59;;;;;;;29.98;19.98;;;;;;;9.03;56.16;101204.94;5055214;28;20070;-73
2021/03/26 05:17:36;;;;;;;27.00;18.60;;;;;;;9.08;55.73;101203.06;5053031;28;20571;-73
2021/03/26 05:20:32;;;;;;;29.23;17.77;;;;;;;9.02;56.23;101198.03;5054658;28;20045;-73
2021/03/26 05:23:48;;;;;;;25.63;16.92;;;;;;;9.09;55.90;101209.97;4968124;28;20050;-72
2021/03/26 05:26:49;;;;;;;25.95;17.65;;;;;;;9.13;56.17;101204.63;4915910;29;20036;-74
2021/03/26 05:29:26;;;;;;;23.67;17.20;;;;;;;9.19;56.01;101207.06;5025518;28;20041;-72
2021/03/26 05:31:59;;;;;;;28.95;18.63;;;;;;;9.16;55.96;101206.28;5052751;28;20399;-74
2021/03/26 05:35:24;;;;;;;26.10;18.58;;;;;;;9.48;55.73;101204.50;5032092;28;20077;-74
2021/03/26 05:38:13;;;;;;;24.38;17.25;;;;;;;9.46;55.71;101209.75;5051046;28;20044;-74
2021/03/26 05:41:10;;;;;;;24.80;16.50;;;;;;;9.47;55.49;101206.25;5052383;28;20051;-74
2021/03/26 05:44:20;;;;;;;23.38;16.23;;;;;;;9.54;55.42;101212.13;5050753;28;20091;-73
2021/03/26 05:47:10;;;;;;;25.50;17.23;;;;;;;9.46;55.79;101214.94;5052356;28;20069;-74
2021/03/26 05:50:43;;;;;;;24.58;17.60;;;;;;;9.66;55.89;101207.41;5049545;28;20460;-72
2021/03/26 05:53:48;;;;;;;23.58;15.18;;;;;;;9.96;54.70;101210.81;4993489;28;20081;-62
2021/03/26 05:56:49;;;;;;;26.83;16.48;;;;;;;9.95;54.94;101210.81;5005775;28;20133;-67
2021/03/26 05:59:51;;;;;;;25.27;17.05;;;;;;;10.34;54.50;101211.31;5052513;28;20120;-63
2021/03/26 06:02:41;;;;;;;24.10;16.77;;;;;;;10.37;53.58;101218.19;5030059;28;20538;-64
2021/03/26 06:05:54;;;;;;;28.75;17.80;;;;;;;10.30;53.96;101227.97;5051915;28;20060;-67
2021/03/26 06:09:17;;;;;;;26.98;16.33;;;;;;;10.86;52.95;101224.28;5049316;28;20095;-65
2021/03/26 06:12:15;;;;;;;24.33;17.67;;;;;;;11.18;51.58;101228.34;4989784;28;20097;-64
2021/03/26 06:15:37;;;;;;;28.48;18.13;;;;;;;11.09;52.00;101232.16;4979021;28;20427;-68
2021/03/26 06:18:45;;;;;;;27.75;18.63;;;;;;;11.40;51.23;101234.50;5053700;28;20131;-66
2021/03/26 06:21:55;;;;;;;29.45;19.30;;;;;;;11.65;50.66;101237.00;4977774;28;20042;-67
2021/03/26 06:24:49;;;;;;;23.30;17.83;;;;;;;11.97;49.79;101235.78;4990841;28;20050;-67
2021/03/26 06:27:26;;;;;;;;;;;;;;;12.25;48.93;101238.13;5039879;28;20083;-66
2021/03/26 06:30:11;;;;;;;31.92;20.13;;;;;;;11.86;49.23;101247.56;5053941;28;19924;-66
2021/03/26 06:32:53;;;;;;;31.05;20.73;;;;;;;11.72;49.50;101238.50;5052071;28;20056;-68
2021/03/26 06:35:57;;;;;;;27.88;20.20;;;;;;;12.39;48.44;101242.78;5053613;28;20049;-68
2021/03/26 06:39:05;;;;;;;26.35;19.35;;;;;;;12.47;48.27;101238.09;5049846;28;20067;-67
2021/03/26 06:41:53;;;;;;;30.42;20.33;;;;;;;13.15;46.66;101237.75;5053590;28;20122;-67
2021/03/26 06:44:46;;;;;;;31.42;20.40;;;;;;;13.46;46.29;101245.94;5053480;28;20128;-68
2021/03/26 06:47:31;;;;;;;28.08;20.25;;;;;;;13.83;45.65;101239.00;5048492;28;20041;-68
2021/03/26 06:50:01;;;;;;;;;;;;;;;13.67;45.41;101249.34;5053834;28;20044;-66
2021/03/26 06:53:04;;;;;;;25.40;19.08;;;;;;;14.23;44.10;101248.41;5052021;28;19971;-66
2021/03/26 06:56:08;;;;;;;28.50;17.48;;;;;;;14.66;42.88;101247.13;5049062;28;20068;-66
2021/03/26 06:58:58;;;;;;;28.42;19.20;;;;;;;14.78;43.14;101248.28;5053265;28;20072;-66
2021/03/26 07:01:54;;;;;;;26.27;18.88;;;;;;;15.02;42.64;101246.16;5053035;28;20124;-67
2021/03/26 07:04:41;;;;;;;27.45;19.83;;;;;;;14.71;42.20;101248.69;5052535;28;20534;-67
2021/03/26 07:07:22;;;;;;;27.77;18.13;;;;;;;14.39;43.11;101253.75;5053107;28;20172;-71
2021/03/26 07:10:14;;;;;;;21.40;17.88;;;;;;;14.71;43.14;101251.31;5042849;28;20045;-62
2021/03/26 07:12:55;;;;;;;26.25;17.08;;;;;;;15.35;41.33;101255.81;5047112;28;20120;-63
2021/03/26 07:15:24;;;;;;;25.05;16.70;;;;;;;15.75;40.59;101254.47;5043059;28;20124;-65
2021/03/26 07:17:57;;;;;;;22.27;16.48;;;;;;;16.14;40.18;101254.03;5052526;28;20125;-63
2021/03/26 07:20:52;;;;;;;27.60;19.02;;;;;;;15.86;40.29;101256.50;5046299;28;20037;-64
2021/03/26 07:23:22;;;;;;;23.17;17.23;;;;;;;15.70;40.15;101251.25;5041697;28;20167;-65
2021/03/26 07:26:23;;;;;;;26.42;19.15;;;;;;;14.94;42.51;101256.19;5035476;28;20061;-64
2021/03/26 07:28:57;;;;;;;25.38;17.45;;;;;;;15.32;42.50;101263.84;5051653;28;20116;-64
2021/03/26 07:31:41;;;;;;;28.27;16.48;;;;;;;15.85;41.35;101266.19;5051137;28;20077;-64
2021/03/26 07:34:17;;;;;;;26.13;18.10;;;;;;;16.01;41.23;101271.44;5047306;28;20045;-65
2021/03/26 07:37:12;;;;;;;22.90;16.38;;;;;;;17.33;38.51;101280.31;5051660;28;20124;-66
2021/03/26 07:39:47;;;;;;;26.00;18.90;;;;;;;16.91;39.08;101283.78;5051266;28;20041;-67
2021/03/26 07:42:37;;;;;;;26.52;18.27;;;;;;;17.10;39.03;101286.13;5051811;28;20075;-67
2021/03/26 07:45:21;;;;;;;24.10;17.83;;;;;;;17.53;38.47;101287.00;5051072;28;20498;-66
2021/03/26 07:47:57;;;;;;;;;;;;;;;17.71;38.47;101287.63;5051788;28;20095;-66
2021/03/26 07:50:38;;;;;;;20.92;16.95;;;;;;;17.98;37.69;101293.81;5040179;28;19955;-68
2021/03/26 07:53:13;;;;;;;28.02;20.77;;;;;;;17.74;38.44;101304.16;5047958;28;20065;-66
2021/03/26 07:55:57;;;;;;;30.23;21.67;;;;;;;17.97;37.82;101297.41;5051503;28;20069;-66
2021/03/26 07:58:27;;;;;;;;;;;;;;;18.71;36.74;101292.59;5046990;28;20098;-66
2021/03/26 08:01:22;;;;;;;30.55;22.63;;;;;;;18.41;36.87;101295.44;5047634;28;20293;-62
2021/03/26 08:03:53;;;;;;;27.10;21.92;;;;;;;18.38;37.05;101295.66;5040218;28;20132;-63
2021/03/26 08:06:50;;;;;;;32.15;20.45;;;;;;;19.22;35.62;101298.72;5048729;28;20124;-61
2021/03/26 08:09:35;;;;;;;23.75;21.15;;;;;;;19.72;34.88;101302.28;5048331;28;20040;-61
2021/03/26 08:12:34;;;;;;;31.55;23.52;;;;;;;19.32;34.72;101297.13;5047979;28;20498;-70
2021/03/26 08:15:13;;;;;;;23.67;20.30;;;;;;;20.10;34.12;101301.31;5001634;28;20037;-66
2021/03/26 08:17:54;;;;;;;34.58;22.88;;;;;;;20.38;33.90;101306.25;5045829;28;20123;-63
2021/03/26 08:20:41;;;;;;;27.38;21.60;;;;;;;20.13;34.21;101304.59;5037963;28;20055;-63
2021/03/26 08:23:32;;;;;;;22.60;19.48;;;;;;;20.53;33.49;101300.81;5047282;28;20057;-62
2021/03/26 08:26:52;;;;;;;27.58;19.27;;;;;;;20.59;33.53;101309.13;5041458;28;20051;-62
2021/03/26 08:29:31;;;;;;;25.42;21.08;;;;;;;20.17;34.16;101317.59;5018068;28;20064;-61
2021/03/26 08:32:31;;;;;;;25.65;20.75;;;;;;;20.45;33.51;101317.22;5044608;28;20045;-62
2021/03/26 08:35:22;;;;;;;32.30;21.35;;;;;;;21.29;32.27;101316.13;5054328;28;20478;-62
2021/03/26 08:38:01;;;;;;;21.00;16.23;;;;;;;21.42;32.04;101319.56;5049207;28;20095;-61
2021/03/26 08:40:57;;;;;;;21.00;17.52;;;;;;;21.73;30.96;101311.78;5051678;28;20462;-62
2021/03/26 08:43:26;;;;;;;19.98;18.00;;;;;;;21.77;31.25;101317.69;5054412;28;20068;-62
2021/03/26 08:46:13;;;;;;;19.15;15.90;;;;;;;20.99;32.69;101315.88;5047650;28;20657;-62
2021/03/26 08:48:53;;;;;;;22.27;16.67;;;;;;;21.11;31.97;101314.91;5049682;28;20099;-63
2021/03/26 08:51:33;;;;;;;18.48;15.27;;;;;;;20.70;32.44;101318.06;5038902;28;20129;-62
2021/03/26 08:54:09;;;;;;;17.35;15.18;;;;;;;21.29;31.95;101324.06;5038886;28;20045;-62
2021/03/26 08:56:54;;;;;;;23.30;15.18;;;;;;;22.28;30.39;101317.97;5047979;28;20048;-62
2021/03/26 08:59:39;;;;;;;21.35;13.95;;;;;;;22.40;30.39;101316.13;5052375;28;20502;-61
2021/03/26 09:02:20;;;;;;;37.83;15.88;;;;;;;22.20;30.34;101318.59;5052954;28;20052;-62
2021/03/26 09:05:10;;;;;;;16.05;14.23;;;;;;;22.27;30.33;101316.28;5053259;28;20120;-61
2021/03/26 09:08:21;;;;;;;19.90;15.70;;;;;;;21.62;31.29;101323.25;5050855;28;20072;-62
2021/03/26 09:10:56;;;;;;;20.25;15.35;;;;;;;20.77;32.99;101316.63;5013483;28;20041;-62
2021/03/26 09:14:11;;;;;;;18.08;15.43;;;;;;;20.43;33.50;101319.16;5052787;28;20388;-62
2021/03/26 09:16:49;;;;;;;18.77;15.00;;;;;;;20.20;33.94;101328.81;5052891;28;20450;-63
2021/03/26 09:19:28;;;;;;;24.30;17.05;;;;;;;19.80;34.83;101325.53;5046735;28;20384;-61
2021/03/26 09:22:16;;;;;;;18.65;16.13;;;;;;;19.71;35.05;101331.47;5052348;28;20136;-62
2021/03/26 09:24:42;;;;;;;23.05;17.20;;;;;;;19.06;36.15;101325.34;5048617;28;20119;-63
2021/03/26 09:27:29;;;;;;;22.38;15.48;;;;;;;19.15;36.05;101323.91;5050962;28;20076;-63
2021/03/26 09:30:05;;;;;;;22.70;17.50;;;;;;;18.91;36.54;101330.84;5050309;28;20443;-63
2021/03/26 09:32:37;;;;;;;22.60;19.17;;;;;;;18.77;36.67;101324.72;5031878;28;20073;-64
2021/03/26 09:35:25;;;;;;;18.42;14.60;;;;;;;18.23;37.45;101332.66;5034397;28;20407;-64
2021/03/26 09:38:02;;;;;;;31.70;17.90;;;;;;;17.91;38.21;101333.88;5038882;28;20037;-68
2021/03/26 09:40:37;;;;;;;19.33;17.13;;;;;;;17.63;39.15;101334.72;5037830;28;20041;-68
2021/03/26 09:43:24;;;;;;;31.42;17.88;;;;;;;17.79;39.01;101333.72;5036252;28;20044;-68
2021/03/26 09:46:04;;;;;;;26.83;17.08;;;;;;;17.91;38.67;101328.59;5034283;28;20041;-67
2021/03/26 09:48:30;;;;;;;17.05;15.13;;;;;;;17.91;38.42;101325.97;5039077;28;20499;-68
2021/03/26 09:51:00;;;;;;;19.92;16.15;;;;;;;17.95;38.25;101319.53;5038965;28;20037;-68
2021/03/26 09:53:27;;;;;;;20.15;16.48;;;;;;;17.41;38.71;101325.50;5032844;28;20508;-67
2021/03/26 09:56:08;;;;;;;24.48;17.75;;;;;;;17.46;39.33;101322.56;5045503;28;20124;-68
2021/03/26 09:58:48;;;;;;;25.58;17.23;;;;;;;17.43;38.56;101323.63;5038633;28;20123;-68
2021/03/26 10:01:23;;;;;;;23.35;17.92;;;;;;;17.59;38.84;101325.31;5035929;28;20037;-69
2021/03/26 10:04:03;;;;;;;24.92;17.92;;;;;;;17.63;38.53;101329.44;5039735;28;20049;-71
2021/03/26 10:07:32;;;;;;;27.42;19.15;;;;;;;17.76;38.43;101325.13;5037264;28;20033;-68
2021/03/26 10:13:01;;;;;;;24.85;18.08;;;;;;;17.56;38.61;101321.06;5038921;28;20037;-70
2021/03/26 10:16:04;;;;;;;26.27;15.75;;;;;;;17.88;37.96;101308.53;5052850;28;20095;-68
2021/03/26 10:18:48;;;;;;;29.90;19.85;;;;;;;17.75;38.34;101308.47;5039311;28;20076;-67
2021/03/26 10:21:23;;;;;;;28.90;19.10;;;;;;;18.03;37.77;101304.91;5052484;28;20033;-67
2021/03/26 10:24:09;;;;;;;27.20;19.02;;;;;;;18.02;38.00;101302.38;5052424;28;20045;-68
2021/03/26 10:27:03;;;;;;;22.42;16.98;;;;;;;17.95;37.95;101309.84;5041343;28;20052;-64
2021/03/26 10:29:30;;;;;;;23.77;19.23;;;;;;;17.77;38.88;101301.28;5042635;28;20041;-64
2021/03/26 10:32:08;;;;;;;20.40;18.23;;;;;;;17.73;39.59;101305.06;5036516;28;20418;-65
2021/03/26 10:34:41;;;;;;;27.42;21.05;;;;;;;17.69;39.22;101302.72;5044375;28;20042;-65
2021/03/26 10:37:22;;;;;;;33.38;21.02;;;;;;;17.58;39.59;101295.47;5033452;28;20539;-70
2021/03/26 10:40:21;;;;;;;26.63;20.38;;;;;;;17.73;40.09;101299.78;5034445;28;20053;-66
2021/03/26 10:43:15;;;;;;;24.88;18.67;;;;;;;17.69;39.55;101284.25;5036004;28;20056;-66
2021/03/26 10:46:01;;;;;;;22.92;20.25;;;;;;;17.58;39.75;101279.66;5037867;28;20052;-67
2021/03/26 10:48:56;;;;;;;27.30;19.80;;;;;;;17.72;40.50;101277.00;5036969;28;20037;-65
2021/03/26 10:51:47;;;;;;;37.45;21.80;;;;;;;17.67;40.85;101276.41;5038954;28;20065;-71
2021/03/26 10:54:45;;;;;;;29.08;21.42;;;;;;;17.84;39.32;101278.00;5052613;28;20049;-69
2021/03/26 10:57:20;;;;;;;28.50;22.25;;;;;;;17.71;39.75;101282.34;5036029;28;20047;-69
2021/03/26 10:59:52;;;;;;;;;;;;;;;17.85;39.06;101273.59;5037120;28;20377;-69
2021/03/26 11:02:30;;;;;;;35.92;22.00;;;;;;;17.75;39.39;101276.81;5039305;28;20310;-69
2021/03/26 11:05:07;;;;;;;33.10;22.25;;;;;;;17.63;39.73;101276.69;5037634;28;20159;-69
2021/03/26 11:07:42;;;;;;;27.45;21.75;;;;;;;17.40;39.84;101270.25;5039013;28;20384;-69
2021/03/26 11:10:11;;;;;;;;;;;;;;;17.46;40.02;101275.13;5034946;28;20046;-69
2021/03/26 11:12:43;;;;;;;29.58;23.58;;;;;;;17.32;40.01;101262.81;5036484;28;19928;-75
2021/03/26 11:15:29;;;;;;;31.33;24.45;;;;;;;17.55;39.74;101259.59;5033899;28;20154;-74
2021/03/26 11:18:17;;;;;;;38.97;26.95;;;;;;;17.56;39.63;101260.44;5033919;28;20045;-73
2021/03/26 11:20:44;;;;;;;45.40;30.30;;;;;;;17.47;39.78;101261.00;5033513;28;20041;-73
2021/03/26 11:23:16;;;;;;;41.55;28.60;;;;;;;17.41;40.49;101256.13;5035575;28;20041;-73
2021/03/26 11:25:46;;;;;;;36.72;27.02;;;;;;;17.59;39.86;101249.72;5032526;28;20559;-75
2021/03/26 11:28:19;;;;;;;38.15;29.63;;;;;;;17.52;40.21;101248.38;5034046;28;20048;-73
2021/03/26 11:30:52;;;;;;;39.50;29.13;;;;;;;17.50;40.51;101243.22;5036626;28;20053;-71
2021/03/26 11:33:43;;;;;;;34.70;27.13;;;;;;;17.54;39.46;101246.50;5035849;28;20099;-73
2021/03/26 11:36:37;;;;;;;44.55;33.78;;;;;;;17.54;40.60;101246.50;5036048;28;20041;-76
2021/03/26 11:39:15;;;;;;;38.85;31.25;;;;;;;17.33;40.63;101243.44;5034715;28;20444;-70
2021/03/26 11:41:44;;;;;;;45.05;30.63;;;;;;;17.56;39.86;101241.97;5033943;28;20399;-72
2021/03/26 11:44:16;;;;;;;40.47;30.52;;;;;;;17.62;38.49;101241.59;5034743;28;20075;-74
2021/03/26 11:46:51;;;;;;;40.22;27.67;;;;;;;17.78;37.97;101239.69;5035180;28;20582;-72
2021/03/26 11:49:29;;;;;;;40.88;29.15;;;;;;;17.73;38.33;101233.88;5035763;28;20045;-72
2021/03/26 11:52:02;;;;;;;40.30;31.90;;;;;;;17.58;38.43;101234.84;5036483;28;20124;-73
2021/03/26 11:54:37;;;;;;;36.00;26.42;;;;;;;17.75;37.37;101237.25;5033299;28;20442;-73
2021/03/26 11:57:53;;;;;;;50.78;37.28;;;;;;;17.65;38.60;101232.66;5035882;28;20437;-73
2021/03/26 12:00:28;;;;;;;49.22;36.28;;;;;;;17.55;38.49;101230.59;5037601;28;20045;-73
2021/03/26 12:03:03;;;;;;;37.33;29.08;;;;;;;17.66;38.01;101224.63;5037673;28;20099;-73
2021/03/26 12:05:48;;;;;;;41.92;31.02;;;;;;;17.81;38.37;101220.19;5038132;28;20123;-73
2021/03/26 12:08:29;;;;;;;35.40;26.98;;;;;;;17.71;37.69;101216.44;5043004;28;20045;-74
2021/03/26 12:11:21;;;;;;;41.90;30.02;;;;;;;17.76;37.95;101203.81;5039541;28;20041;-74
2021/03/26 12:14:15;;;;;;;37.75;27.17;;;;;;;17.80;37.02;101190.34;5040833;28;20448;-76
2021/03/26 12:16:54;;;;;;;41.72;32.25;;;;;;;17.84;38.06;101196.25;5038476;28;20407;-74
2021/03/26 12:19:22;;;;;;;56.20;44.08;;;;;;;17.77;38.34;101189.69;5046197;28;20045;-74
2021/03/26 12:22:31;;;;;;;49.33;31.95;;;;;;;17.83;38.85;101188.44;5051574;28;20450;-72
2021/03/26 12:25:06;;;;;;;47.63;32.78;;;;;;;17.68;38.02;101184.97;4969140;28;20654;-75